createdAt,value
2022-07-30T00:00:32.470Z,18.57
2022-07-30T00:03:09.614Z,18.58
2022-07-30T00:05:38.442Z,18.58
2022-07-30T00:08:07.256Z,18.58
2022-07-30T00:10:45.128Z,18.58
2022-07-30T00:13:15.005Z,18.58
2022-07-30T00:15:44.229Z,18.57
2022-07-30T00:18:13.310Z,18.58
2022-07-30T00:20:44.258Z,18.57
2022-07-30T00:23:13.309Z,18.56
2022-07-30T00:25:44.342Z,18.55
2022-07-30T00:28:13.146Z,18.53
2022-07-30T00:30:41.942Z,18.53
2022-07-30T00:33:11.257Z,18.49
2022-07-30T00:35:40.880Z,18.45
2022-07-30T00:38:09.597Z,18.44
2022-07-30T00:40:40.187Z,18.42
2022-07-30T00:43:13.757Z,18.40
2022-07-30T00:45:43.151Z,18.38
2022-07-30T00:48:14.419Z,18.34
2022-07-30T00:50:43.464Z,18.30
2022-07-30T00:53:14.680Z,18.25
2022-07-30T00:55:43.794Z,18.22
2022-07-30T00:58:12.950Z,18.21
2022-07-30T01:00:47.486Z,18.20
2022-07-30T01:03:16.365Z,18.20
2022-07-30T01:05:45.404Z,18.20
2022-07-30T01:08:14.460Z,18.19
2022-07-30T01:10:43.889Z,18.18
2022-07-30T01:13:13.567Z,18.17
2022-07-30T01:15:42.445Z,18.17
2022-07-30T01:18:14.293Z,18.17
2022-07-30T01:20:50.010Z,18.18
2022-07-30T01:23:26.013Z,18.20
2022-07-30T01:26:00.699Z,18.19
2022-07-30T01:28:35.318Z,18.18
2022-07-30T01:31:05.765Z,18.18
2022-07-30T01:33:39.074Z,18.18
2022-07-30T01:36:10.518Z,18.17
2022-07-30T01:38:41.521Z,18.16
2022-07-30T01:41:11.082Z,18.16
2022-07-30T01:43:41.495Z,18.16
2022-07-30T01:46:12.068Z,18.15
2022-07-30T01:48:40.955Z,18.15
2022-07-30T01:51:13.918Z,18.13
2022-07-30T01:53:50.446Z,18.09
2022-07-30T01:56:25.100Z,18.06
2022-07-30T01:58:58.654Z,18.02
2022-07-30T02:01:29.136Z,17.98
2022-07-30T02:04:04.531Z,17.97
2022-07-30T02:06:40.536Z,17.98
2022-07-30T02:09:15.038Z,17.97
2022-07-30T02:12:07.884Z,17.96
2022-07-30T02:14:45.466Z,17.95
2022-07-30T02:17:22.888Z,17.93
2022-07-30T02:20:00.647Z,17.88
2022-07-30T02:22:36.756Z,17.88
2022-07-30T02:25:09.968Z,17.90
2022-07-30T02:27:43.259Z,17.88
2022-07-30T02:30:15.220Z,17.87
2022-07-30T02:32:47.119Z,17.86
2022-07-30T02:35:20.090Z,17.86
2022-07-30T02:37:53.121Z,17.85
2022-07-30T02:40:23.285Z,17.83
2022-07-30T02:42:56.662Z,17.82
2022-07-30T02:45:29.215Z,17.82
2022-07-30T02:48:01.087Z,17.84
2022-07-30T02:50:30.704Z,17.85
2022-07-30T02:53:02.783Z,17.83
2022-07-30T02:55:34.964Z,17.77
2022-07-30T02:58:06.594Z,17.75
2022-07-30T03:00:38.636Z,17.75
2022-07-30T03:03:08.720Z,17.74
2022-07-30T03:05:41.210Z,17.74
2022-07-30T03:08:11.280Z,17.75
2022-07-30T03:10:43.921Z,17.75
2022-07-30T03:13:14.629Z,17.75
2022-07-30T03:15:48.302Z,17.75
2022-07-30T03:18:20.280Z,17.75
2022-07-30T03:20:53.534Z,17.75
2022-07-30T03:23:24.070Z,17.73
2022-07-30T03:25:57.986Z,17.72
2022-07-30T03:28:28.103Z,17.71
2022-07-30T03:30:57.203Z,17.69
2022-07-30T03:33:38.150Z,17.68
2022-07-30T03:36:12.630Z,17.68
2022-07-30T03:38:43.767Z,17.69
2022-07-30T03:41:13.704Z,17.71
2022-07-30T03:43:43.871Z,17.73
2022-07-30T03:46:13.428Z,17.73
2022-07-30T03:48:46.118Z,17.72
2022-07-30T03:51:16.405Z,17.71
2022-07-30T03:53:47.091Z,17.71
2022-07-30T03:56:48.565Z,17.70
2022-07-30T03:59:35.017Z,17.70
2022-07-30T04:02:06.928Z,17.69
2022-07-30T04:05:02.520Z,17.72
2022-07-30T04:07:31.537Z,17.74
2022-07-30T04:10:00.359Z,17.73
2022-07-30T04:12:39.326Z,17.74
2022-07-30T04:16:38.873Z,17.76
2022-07-30T04:18:04.392Z,17.78
2022-07-30T04:20:42.487Z,17.79
2022-07-30T04:23:12.369Z,17.83
2022-07-30T04:25:43.466Z,17.83
2022-07-30T04:28:13.775Z,17.85
2022-07-30T04:30:42.691Z,17.87
2022-07-30T04:33:11.624Z,17.88
2022-07-30T04:35:51.002Z,17.89
2022-07-30T04:38:34.887Z,17.89
2022-07-30T04:41:03.805Z,17.92
2022-07-30T04:43:41.668Z,17.94
2022-07-30T04:46:10.782Z,17.96
2022-07-30T04:48:40.050Z,17.99
2022-07-30T04:51:18.709Z,18.04
2022-07-30T04:53:48.896Z,18.07
2022-07-30T04:56:20.645Z,18.08
2022-07-30T04:58:52.983Z,18.11
2022-07-30T05:01:34.026Z,18.16
2022-07-30T05:04:12.103Z,18.22
2022-07-30T05:06:41.702Z,18.25
2022-07-30T05:09:11.798Z,18.31
2022-07-30T05:11:40.626Z,18.34
2022-07-30T05:14:09.618Z,18.36
2022-07-30T05:16:39.049Z,18.41
2022-07-30T05:19:08.771Z,18.49
2022-07-30T05:21:38.199Z,18.58
2022-07-30T05:24:08.092Z,18.66
2022-07-30T05:26:40.264Z,18.74
2022-07-30T05:29:18.057Z,18.85
2022-07-30T05:31:53.125Z,18.94
2022-07-30T05:34:22.375Z,19.05
2022-07-30T05:36:54.500Z,19.18
2022-07-30T05:39:24.360Z,19.29
2022-07-30T05:42:31.554Z,19.43
2022-07-30T05:45:01.213Z,19.53
2022-07-30T05:47:30.118Z,19.62
2022-07-30T05:50:04.221Z,19.73
2022-07-30T05:52:34.269Z,19.84
2022-07-30T05:55:10.933Z,19.99
2022-07-30T05:58:02.861Z,20.04
2022-07-30T06:00:34.917Z,20.01
2022-07-30T06:03:04.310Z,20.00
2022-07-30T06:06:02.360Z,20.12
2022-07-30T06:08:31.342Z,20.27
2022-07-30T06:11:00.680Z,20.41
2022-07-30T06:13:30.211Z,20.46
2022-07-30T06:16:00.390Z,20.52
2022-07-30T06:18:29.308Z,20.58
2022-07-30T06:20:59.224Z,20.58
2022-07-30T06:23:34.695Z,20.63
2022-07-30T06:26:26.556Z,20.71
2022-07-30T06:28:55.312Z,20.76
2022-07-30T06:31:32.682Z,20.81
2022-07-30T06:34:02.071Z,20.91
2022-07-30T06:36:34.853Z,20.99
2022-07-30T06:39:07.381Z,21.05
2022-07-30T06:41:54.809Z,21.11
2022-07-30T06:44:23.608Z,21.12
2022-07-30T06:47:11.900Z,21.06
2022-07-30T06:49:41.159Z,21.04
2022-07-30T06:52:16.964Z,21.05
2022-07-30T06:54:50.509Z,21.06
2022-07-30T06:57:28.698Z,21.05
2022-07-30T06:59:59.439Z,21.06
2022-07-30T07:02:38.784Z,21.08
2022-07-30T07:05:15.645Z,21.16
2022-07-30T07:07:58.179Z,21.24
2022-07-30T07:10:41.708Z,21.37
2022-07-30T07:13:24.413Z,21.41
2022-07-30T07:15:54.140Z,21.45
2022-07-30T07:18:24.762Z,21.49
2022-07-30T07:21:00.494Z,21.53
2022-07-30T07:23:39.768Z,21.57
2022-07-30T07:26:16.075Z,21.59
2022-07-30T07:28:45.030Z,21.59
2022-07-30T07:32:05.787Z,21.63
2022-07-30T07:34:06.002Z,21.69
2022-07-30T07:36:35.916Z,21.74
2022-07-30T07:39:09.319Z,21.84
2022-07-30T07:41:48.496Z,21.93
2022-07-30T07:44:20.931Z,22.00
2022-07-30T07:46:50.063Z,22.08
2022-07-30T07:49:18.915Z,22.18
2022-07-30T07:51:56.875Z,22.33
2022-07-30T07:54:25.940Z,22.45
2022-07-30T07:56:55.997Z,22.58
2022-07-30T07:59:40.155Z,22.69
2022-07-30T08:02:19.928Z,22.84
2022-07-30T08:05:12.055Z,22.94
2022-07-30T08:07:50.469Z,23.00
2022-07-30T08:10:38.121Z,23.06
2022-07-30T08:13:51.791Z,23.18
2022-07-30T08:16:25.733Z,23.32
2022-07-30T08:19:24.643Z,23.36
2022-07-30T08:22:16.316Z,23.40
2022-07-30T08:24:45.499Z,23.55
2022-07-30T08:27:14.497Z,23.73
2022-07-30T08:29:44.767Z,23.87
2022-07-30T08:32:13.615Z,24.00
2022-07-30T08:34:42.570Z,24.08
2022-07-30T08:37:11.461Z,24.17
2022-07-30T08:39:43.393Z,24.19
2022-07-30T08:42:14.403Z,24.10
2022-07-30T08:44:45.837Z,24.02
2022-07-30T08:47:18.978Z,24.00
2022-07-30T08:50:19.516Z,23.98
2022-07-30T09:43:49.168Z,25.31
2022-07-30T09:46:42.262Z,25.23
2022-07-30T09:49:29.908Z,25.17
2022-07-30T09:51:59.501Z,25.24
2022-07-30T09:54:51.092Z,25.26
2022-07-30T09:57:27.546Z,25.30
2022-07-30T10:00:23.680Z,25.38
2022-07-30T10:03:21.579Z,25.48
2022-07-30T10:06:34.179Z,25.57
2022-07-30T10:09:14.311Z,25.63
2022-07-30T10:11:48.369Z,25.66
2022-07-30T10:14:30.890Z,25.72
2022-07-30T10:17:05.512Z,25.80
2022-07-30T10:19:40.203Z,25.95
2022-07-30T10:22:30.009Z,26.07
2022-07-30T10:25:20.743Z,26.12
2022-07-30T10:28:11.587Z,26.23
2022-07-30T10:30:41.742Z,26.41
2022-07-30T10:33:35.021Z,26.49
2022-07-30T10:36:08.827Z,26.61
2022-07-30T10:38:41.853Z,26.69
2022-07-30T10:41:44.389Z,26.83
2022-07-30T10:44:41.569Z,26.97
2022-07-30T10:47:14.305Z,26.98
2022-07-30T10:50:07.389Z,26.90
2022-07-30T10:52:49.999Z,26.80
2022-07-30T10:55:37.128Z,26.75
2022-07-30T10:58:10.475Z,26.68
2022-07-30T11:00:59.659Z,26.70
2022-07-30T11:03:41.217Z,26.71
2022-07-30T11:06:27.944Z,26.71
2022-07-30T11:08:57.257Z,26.72
2022-07-30T11:12:02.058Z,26.74
2022-07-30T11:15:06.804Z,26.63
2022-07-30T11:18:02.608Z,26.56
2022-07-30T11:20:35.046Z,26.54
2022-07-30T11:23:14.225Z,26.50
2022-07-30T11:25:51.485Z,26.49
2022-07-30T11:28:39.383Z,26.41
2022-07-30T11:31:37.007Z,26.25
2022-07-30T11:34:31.904Z,26.16
2022-07-30T11:37:18.796Z,26.07
2022-07-30T11:40:14.147Z,25.97
2022-07-30T11:42:44.324Z,25.81
2022-07-30T11:45:32.149Z,25.68
2022-07-30T11:48:01.370Z,25.56
2022-07-30T11:50:32.867Z,25.45
2022-07-30T11:53:03.192Z,25.37
2022-07-30T11:55:34.492Z,25.31
2022-07-30T11:58:05.609Z,25.24
2022-07-30T12:00:39.998Z,25.14
2022-07-30T12:03:10.850Z,25.09
2022-07-30T12:05:40.264Z,25.04
2022-07-30T12:08:35.271Z,25.02
2022-07-30T12:11:00.589Z,25.02
2022-07-30T12:13:43.470Z,25.07
2022-07-30T12:16:16.413Z,25.10
2022-07-30T12:18:46.871Z,25.11
2022-07-30T12:21:15.648Z,25.11
2022-07-30T12:23:53.365Z,25.07
2022-07-30T12:26:26.689Z,25.04
2022-07-30T12:28:57.744Z,25.01
2022-07-30T12:31:27.046Z,24.96
2022-07-30T12:33:56.136Z,24.91
2022-07-30T12:36:30.162Z,24.87
2022-07-30T12:39:02.082Z,24.86
2022-07-30T12:41:45.578Z,24.79
2022-07-30T12:44:35.014Z,24.68
2022-07-30T12:47:05.093Z,24.58
2022-07-30T12:49:37.780Z,24.51
2022-07-30T12:52:27.675Z,24.38
2022-07-30T12:55:02.227Z,24.15
2022-07-30T12:57:57.915Z,23.90
2022-07-30T13:00:29.803Z,23.72
2022-07-30T13:02:59.469Z,23.55
2022-07-30T13:05:51.323Z,23.43
2022-07-30T13:08:56.284Z,23.36
2022-07-30T13:11:37.209Z,23.31
2022-07-30T13:14:06.515Z,23.17
2022-07-30T13:16:36.546Z,23.08
2022-07-30T13:19:06.632Z,23.01
2022-07-30T13:21:35.736Z,23.01
2022-07-30T13:24:05.777Z,22.93
2022-07-30T13:26:39.269Z,22.88
2022-07-30T13:29:08.824Z,22.89
2022-07-30T13:31:42.767Z,22.88
2022-07-30T13:34:12.642Z,22.87
2022-07-30T13:36:42.463Z,22.85
2022-07-30T13:39:11.937Z,22.77
2022-07-30T13:41:41.441Z,22.68
2022-07-30T13:44:10.332Z,22.70
2022-07-30T13:46:41.298Z,22.70
2022-07-30T13:49:10.643Z,22.67
2022-07-30T13:51:39.752Z,22.62
2022-07-30T13:54:08.530Z,22.57
2022-07-30T13:56:41.345Z,22.53
2022-07-30T13:59:10.071Z,22.50
2022-07-30T14:01:38.937Z,22.49
2022-07-30T14:04:08.010Z,22.47
2022-07-30T14:06:37.186Z,22.42
2022-07-30T14:09:05.973Z,22.38
2022-07-30T14:11:35.405Z,22.34
2022-07-30T14:14:04.294Z,22.28
2022-07-30T14:16:45.115Z,22.26
2022-07-30T14:19:22.959Z,22.26
2022-07-30T14:21:53.821Z,22.29
2022-07-30T14:24:23.340Z,22.29
2022-07-30T14:26:57.797Z,22.24
2022-07-30T14:29:28.362Z,22.23
2022-07-30T14:31:57.582Z,22.23
2022-07-30T14:34:26.313Z,22.22
2022-07-30T14:36:55.340Z,22.22
2022-07-30T14:39:24.427Z,22.20
2022-07-30T14:41:55.503Z,22.19
2022-07-30T14:44:25.007Z,22.19
2022-07-30T14:46:53.874Z,22.19
2022-07-30T14:49:24.055Z,22.19
2022-07-30T14:51:52.311Z,22.20
2022-07-30T14:54:21.812Z,22.18
2022-07-30T14:56:56.157Z,22.15
2022-07-30T14:59:27.301Z,22.12
2022-07-30T15:01:56.862Z,22.12
2022-07-30T15:04:25.850Z,22.13
2022-07-30T15:06:54.640Z,22.15
2022-07-30T15:09:26.277Z,22.18
2022-07-30T15:12:10.458Z,22.22
2022-07-30T15:14:41.116Z,22.25
2022-07-30T15:17:09.962Z,22.24
2022-07-30T15:19:49.428Z,22.24
2022-07-30T15:22:19.915Z,22.24
2022-07-30T15:24:49.109Z,22.24
2022-07-30T15:27:17.816Z,22.24
2022-07-30T15:29:46.789Z,22.24
2022-07-30T15:32:16.515Z,22.23
2022-07-30T15:34:46.399Z,22.22
2022-07-30T15:37:15.317Z,22.20
2022-07-30T15:39:44.159Z,22.21
2022-07-30T15:42:15.316Z,22.21
2022-07-30T15:44:48.700Z,22.20
2022-07-30T15:47:18.120Z,22.18
2022-07-30T15:49:46.922Z,22.17
2022-07-30T15:52:15.667Z,22.18
2022-07-30T15:54:44.480Z,22.15
2022-07-30T15:57:13.362Z,22.15
2022-07-30T15:59:42.084Z,22.14
2022-07-30T16:02:11.006Z,22.12
2022-07-30T16:04:39.743Z,22.08
2022-07-30T16:07:10.017Z,22.04
2022-07-30T16:09:39.279Z,22.01
2022-07-30T16:12:08.273Z,22.00
2022-07-30T16:14:37.208Z,21.99
2022-07-30T16:17:09.381Z,22.00
2022-07-30T16:19:41.334Z,22.00
2022-07-30T16:22:15.594Z,21.99
2022-07-30T16:24:52.868Z,21.97
2022-07-30T16:27:21.815Z,21.95
2022-07-30T16:29:50.593Z,21.94
2022-07-30T16:32:19.488Z,21.90
2022-07-30T16:34:49.192Z,21.89
2022-07-30T16:37:18.590Z,21.87
2022-07-30T16:39:47.708Z,21.86
2022-07-30T16:42:16.586Z,21.84
2022-07-30T16:44:45.364Z,21.82
2022-07-30T16:47:14.206Z,21.80
2022-07-30T16:49:43.058Z,21.77
2022-07-30T16:52:11.888Z,21.75
2022-07-30T16:54:40.739Z,21.71
2022-07-30T16:57:10.583Z,21.69
2022-07-30T16:59:42.259Z,21.67
2022-07-30T17:02:12.878Z,21.67
2022-07-30T17:04:41.866Z,21.66
2022-07-30T17:07:10.760Z,21.64
2022-07-30T17:09:42.881Z,21.64
2022-07-30T17:12:19.832Z,21.64
2022-07-30T17:14:54.558Z,21.59
2022-07-30T17:17:23.421Z,21.55
2022-07-30T17:19:52.714Z,21.54
2022-07-30T17:22:21.730Z,21.52
2022-07-30T17:24:50.484Z,21.51
2022-07-30T17:27:22.261Z,21.48
2022-07-30T17:29:51.570Z,21.46
2022-07-30T17:32:21.659Z,21.44
2022-07-30T17:34:50.605Z,21.42
2022-07-30T17:37:19.586Z,21.43
2022-07-30T17:40:22.979Z,21.43
2022-07-30T17:42:43.209Z,21.42
2022-07-30T17:45:13.126Z,21.40
2022-07-30T17:47:43.096Z,21.38
2022-07-30T17:50:14.087Z,21.33
2022-07-30T17:52:43.728Z,21.32
2022-07-30T17:55:13.619Z,21.31
2022-07-30T17:57:42.503Z,21.29
2022-07-30T18:00:15.607Z,21.24
2022-07-30T18:02:44.660Z,21.19
2022-07-30T18:05:14.857Z,21.15
2022-07-30T18:07:44.791Z,21.10
2022-07-30T18:10:14.041Z,21.07
2022-07-30T18:12:48.856Z,21.02
2022-07-30T18:15:18.794Z,20.94
2022-07-30T18:17:47.798Z,20.90
2022-07-30T18:20:17.992Z,20.87
2022-07-30T18:22:46.437Z,20.84
2022-07-30T18:25:20.674Z,20.76
2022-07-30T18:27:52.332Z,20.70
2022-07-30T18:30:21.560Z,20.65
2022-07-30T18:32:50.668Z,20.61
2022-07-30T18:35:19.660Z,20.59
2022-07-30T18:37:48.945Z,20.54
2022-07-30T18:40:23.476Z,20.51
2022-07-30T18:42:55.023Z,20.46
2022-07-30T18:45:24.911Z,20.41
2022-07-30T18:47:54.673Z,20.34
2022-07-30T18:50:25.039Z,20.29
2022-07-30T18:52:55.901Z,20.26
2022-07-30T18:55:24.690Z,20.19
2022-07-30T18:57:53.749Z,20.15
2022-07-30T19:00:34.823Z,20.10
2022-07-30T19:03:11.193Z,20.08
2022-07-30T19:05:44.731Z,20.06
2022-07-30T19:08:15.077Z,20.03
2022-07-30T19:10:43.947Z,20.00
2022-07-30T19:13:13.157Z,19.95
2022-07-30T19:15:42.465Z,19.93
2022-07-30T19:18:11.803Z,19.90
2022-07-30T19:20:41.051Z,19.89
2022-07-30T19:23:11.549Z,19.90
2022-07-30T19:25:43.063Z,19.87
2022-07-30T19:28:14.764Z,19.87
2022-07-30T19:30:44.171Z,19.85
2022-07-30T19:33:15.494Z,19.86
2022-07-30T19:35:47.368Z,19.85
2022-07-30T19:38:23.770Z,19.81
2022-07-30T19:40:54.249Z,19.78
2022-07-30T19:43:23.900Z,19.70
2022-07-30T19:45:53.743Z,19.66
2022-07-30T19:48:32.381Z,19.66
2022-07-30T19:51:01.785Z,19.64
2022-07-30T19:53:33.994Z,19.60
2022-07-30T19:56:08.356Z,19.56
2022-07-30T19:58:40.230Z,19.52
2022-07-30T20:01:11.042Z,19.49
2022-07-30T20:03:40.523Z,19.48
2022-07-30T20:06:14.583Z,19.48
2022-07-30T20:08:44.873Z,19.48
2022-07-30T20:11:35.875Z,19.48
2022-07-30T20:14:05.807Z,19.46
2022-07-30T20:16:35.250Z,19.45
2022-07-30T20:19:04.459Z,19.44
2022-07-30T20:21:56.301Z,19.43
2022-07-30T20:24:23.103Z,19.41
2022-07-30T20:26:54.649Z,19.36
2022-07-30T20:29:25.099Z,19.33
2022-07-30T20:31:54.638Z,19.29
2022-07-30T20:34:23.906Z,19.29
2022-07-30T20:36:56.492Z,19.24
2022-07-30T20:39:27.551Z,19.24
2022-07-30T20:42:07.827Z,19.23
2022-07-30T20:44:38.508Z,19.22
2022-07-30T20:47:08.301Z,19.20
2022-07-30T20:49:38.646Z,19.17
2022-07-30T20:52:10.931Z,19.13
2022-07-30T20:54:45.043Z,19.11
2022-07-30T21:00:04.378Z,19.11
2022-07-30T21:02:37.132Z,19.10
2022-07-30T21:05:08.329Z,19.09
2022-07-30T21:07:42.939Z,19.05
2022-07-30T21:10:13.521Z,19.05
2022-07-30T21:12:44.751Z,19.04
2022-07-30T21:15:23.487Z,19.03
2022-07-30T21:17:54.054Z,19.00
2022-07-30T21:20:28.115Z,19.01
2022-07-30T21:23:02.190Z,19.00
2022-07-30T21:25:33.529Z,18.99
2022-07-30T21:28:03.263Z,18.98
2022-07-30T21:30:33.883Z,18.96
2022-07-30T21:33:03.769Z,18.94
2022-07-30T21:35:32.912Z,18.93
2022-07-30T21:38:04.808Z,18.90
2022-07-30T21:40:41.493Z,18.89
2022-07-30T21:43:12.398Z,18.90
2022-07-30T21:45:40.426Z,18.84
2022-07-30T21:48:12.262Z,18.81
2022-07-30T21:50:41.318Z,18.80
2022-07-30T21:53:10.168Z,18.81
2022-07-30T21:55:52.758Z,18.81
2022-07-30T21:58:25.124Z,18.80
2022-07-30T22:01:17.545Z,18.77
2022-07-30T22:04:04.538Z,18.74
2022-07-30T22:06:38.550Z,18.68
2022-07-30T22:09:19.640Z,18.63
2022-07-30T22:12:00.691Z,18.62
2022-07-30T22:14:31.518Z,18.67
2022-07-30T22:17:00.401Z,18.68
2022-07-30T22:19:29.683Z,18.70
2022-07-30T22:21:58.744Z,18.72
2022-07-30T22:24:33.253Z,18.75
2022-07-30T22:27:12.525Z,18.76
2022-07-30T22:29:47.375Z,18.76
2022-07-30T22:32:16.485Z,18.75
2022-07-30T22:34:45.621Z,18.73
2022-07-30T22:37:17.315Z,18.74
2022-07-30T22:39:48.664Z,18.74
2022-07-30T22:42:23.910Z,18.74
2022-07-30T22:44:54.896Z,18.73
2022-07-30T22:52:28.695Z,18.70
2022-07-30T22:55:04.639Z,18.69
2022-07-30T22:57:40.138Z,18.67
2022-07-30T23:00:12.775Z,18.66
2022-07-30T23:02:44.005Z,18.62
2022-07-30T23:05:15.470Z,18.60
2022-07-30T23:07:45.136Z,18.55
2022-07-30T23:10:20.606Z,18.52
2022-07-30T23:12:26.541Z,19.11
2022-07-30T23:12:53.487Z,18.50
2022-07-30T23:15:25.228Z,18.48
2022-07-30T23:17:54.452Z,18.46
2022-07-30T23:20:24.152Z,18.44
2022-07-30T23:22:53.325Z,18.44
2022-07-30T23:25:22.654Z,18.41
2022-07-30T23:27:51.672Z,18.37
2022-07-30T23:30:20.514Z,18.35
2022-07-30T23:32:49.378Z,18.34
2022-07-30T23:35:18.299Z,18.32
2022-07-30T23:37:48.021Z,18.27
2022-07-30T23:40:19.065Z,18.24
2022-07-30T23:42:50.302Z,18.21
2022-07-30T23:45:19.393Z,18.18
2022-07-30T23:48:01.875Z,18.16
2022-07-30T23:50:33.211Z,18.11
2022-07-30T23:53:03.056Z,18.07
2022-07-30T23:55:33.091Z,18.02
2022-07-30T23:58:01.920Z,17.97
